sensor_id;sensor_type;location;lat;lon;timestamp;pressure;altitude;pressure_sealevel;temperature;humidity
13661;BME280;6903;49.480;11.102;2023-04-19T00:00:43;98536.91;;;7.86;100.00
13661;BME280;6903;49.480;11.102;2023-04-19T00:03:09;98541.81;;;7.92;100.00
13661;BME280;6903;49.480;11.102;2023-04-19T00:05:35;98538.13;;;7.95;100.00
13661;BME280;6903;49.480;11.102;2023-04-19T00:08:03;98534.75;;;7.93;100.00
13661;BME280;6903;49.480;11.102;2023-04-19T00:10:28;98534.09;;;7.89;100.00
13661;BME280;6903;49.480;11.102;2023-04-19T00:12:53;98532.78;;;7.82;100.00
13661;BME280;6903;49.480;11.102;2023-04-19T00:15:18;98527.03;;;7.76;100.00
13661;BME280;6903;49.480;11.102;2023-04-19T00:17:44;98530.03;;;7.70;100.00
13661;BME280;6903;49.480;11.102;2023-04-19T00:20:10;98521.09;;;7.58;100.00
13661;BME280;6903;49.480;11.102;2023-04-19T00:22:38;98522.28;;;7.53;100.00
13661;BME280;6903;49.480;11.102;2023-04-19T00:25:04;98515.72;;;7.46;100.00
13661;BME280;6903;49.480;11.102;2023-04-19T00:27:29;98521.75;;;7.32;100.00
13661;BME280;6903;49.480;11.102;2023-04-19T00:29:55;98526.19;;;7.16;100.00
13661;BME280;6903;49.480;11.102;2023-04-19T00:32:22;98530.59;;;7.00;100.00
13661;BME280;6903;49.480;11.102;2023-04-19T00:34:47;98524.44;;;6.85;100.00
13661;BME280;6903;49.480;11.102;2023-04-19T00:37:12;98525.28;;;6.70;100.00
13661;BME280;6903;49.480;11.102;2023-04-19T00:39:38;98516.38;;;6.57;100.00
13661;BME280;6903;49.480;11.102;2023-04-19T00:42:04;98520.63;;;6.44;100.00
13661;BME280;6903;49.480;11.102;2023-04-19T00:44:29;98511.56;;;6.34;100.00
13661;BME280;6903;49.480;11.102;2023-04-19T00:46:55;98508.69;;;6.23;100.00
13661;BME280;6903;49.480;11.102;2023-04-19T00:49:22;98508.69;;;6.23;100.00
13661;BME280;6903;49.480;11.102;2023-04-19T00:51:48;98508.50;;;6.26;100.00
13661;BME280;6903;49.480;11.102;2023-04-19T00:54:14;98515.25;;;6.30;100.00
13661;BME280;6903;49.480;11.102;2023-04-19T00:56:40;98516.63;;;6.37;100.00
13661;BME280;6903;49.480;11.102;2023-04-19T00:59:05;98514.63;;;6.42;100.00
13661;BME280;6903;49.480;11.102;2023-04-19T01:01:32;98508.09;;;6.49;100.00
13661;BME280;6903;49.480;11.102;2023-04-19T01:03:59;98502.63;;;6.54;100.00
13661;BME280;6903;49.480;11.102;2023-04-19T01:06:27;98513.63;;;6.60;100.00
13661;BME280;6903;49.480;11.102;2023-04-19T01:08:54;98506.50;;;6.62;100.00
13661;BME280;6903;49.480;11.102;2023-04-19T01:11:19;98504.81;;;6.61;100.00
13661;BME280;6903;49.480;11.102;2023-04-19T01:13:44;98492.72;;;6.59;100.00
13661;BME280;6903;49.480;11.102;2023-04-19T01:16:10;98494.69;;;6.55;100.00
13661;BME280;6903;49.480;11.102;2023-04-19T01:18:35;98497.53;;;6.51;100.00
13661;BME280;6903;49.480;11.102;2023-04-19T01:21:03;98496.09;;;6.45;100.00
13661;BME280;6903;49.480;11.102;2023-04-19T01:23:29;98494.44;;;6.44;100.00
13661;BME280;6903;49.480;11.102;2023-04-19T01:25:54;98494.25;;;6.47;100.00
13661;BME280;6903;49.480;11.102;2023-04-19T01:28:20;98495.84;;;6.50;100.00
13661;BME280;6903;49.480;11.102;2023-04-19T01:30:45;98497.47;;;6.52;100.00
13661;BME280;6903;49.480;11.102;2023-04-19T01:33:10;98490.44;;;6.53;100.00
13661;BME280;6903;49.480;11.102;2023-04-19T01:35:36;98490.44;;;6.53;100.00
13661;BME280;6903;49.480;11.102;2023-04-19T01:38:01;98480.81;;;6.53;100.00
13661;BME280;6903;49.480;11.102;2023-04-19T01:40:26;98485.13;;;6.54;100.00
13661;BME280;6903;49.480;11.102;2023-04-19T01:42:52;98478.88;;;6.57;100.00
13661;BME280;6903;49.480;11.102;2023-04-19T01:45:17;98478.72;;;6.60;100.00
13661;BME280;6903;49.480;11.102;2023-04-19T01:47:43;98476.19;;;6.58;100.00
13661;BME280;6903;49.480;11.102;2023-04-19T01:50:08;98478.88;;;6.57;100.00
13661;BME280;6903;49.480;11.102;2023-04-19T01:52:33;98476.44;;;6.54;100.00
13661;BME280;6903;49.480;11.102;2023-04-19T01:54:59;98467.13;;;6.48;100.00
13661;BME280;6903;49.480;11.102;2023-04-19T01:57:24;98473.69;;;6.40;100.00
13661;BME280;6903;49.480;11.102;2023-04-19T01:59:49;98472.44;;;6.31;100.00
13661;BME280;6903;49.480;11.102;2023-04-19T02:02:15;98472.09;;;6.22;100.00
13661;BME280;6903;49.480;11.102;2023-04-19T02:04:40;98474.19;;;6.15;100.00
13661;BME280;6903;49.480;11.102;2023-04-19T02:07:06;98464.88;;;6.10;100.00
13661;BME280;6903;49.480;11.102;2023-04-19T02:09:35;98472.13;;;6.05;100.00
13661;BME280;6903;49.480;11.102;2023-04-19T02:12:01;98468.09;;;5.99;100.00
13661;BME280;6903;49.480;11.102;2023-04-19T02:14:26;98469.41;;;5.91;100.00
13661;BME280;6903;49.480;11.102;2023-04-19T02:16:51;98469.81;;;5.83;100.00
13661;BME280;6903;49.480;11.102;2023-04-19T02:19:17;98466.50;;;5.79;100.00
13661;BME280;6903;49.480;11.102;2023-04-19T02:21:42;98462.25;;;5.77;100.00
13661;BME280;6903;49.480;11.102;2023-04-19T02:24:07;98457.16;;;5.74;100.00
13661;BME280;6903;49.480;11.102;2023-04-19T02:26:32;98455.66;;;5.70;100.00
13661;BME280;6903;49.480;11.102;2023-04-19T02:28:58;98447.19;;;5.65;100.00
13661;BME280;6903;49.480;11.102;2023-04-19T02:31:23;98448.97;;;5.64;100.00
13661;BME280;6903;49.480;11.102;2023-04-19T02:33:49;98448.03;;;5.65;100.00
13661;BME280;6903;49.480;11.102;2023-04-19T02:36:14;98438.56;;;5.63;100.00
13661;BME280;6903;49.480;11.102;2023-04-19T02:38:39;98435.34;;;5.58;100.00
13661;BME280;6903;49.480;11.102;2023-04-19T02:41:05;98436.53;;;5.52;100.00
13661;BME280;6903;49.480;11.102;2023-04-19T02:43:30;98437.84;;;5.44;100.00
13661;BME280;6903;49.480;11.102;2023-04-19T02:45:56;98440.81;;;5.36;100.00
13661;BME280;6903;49.480;11.102;2023-04-19T02:48:21;98438.53;;;5.30;100.00
13661;BME280;6903;49.480;11.102;2023-04-19T02:50:46;98433.00;;;5.19;100.00
13661;BME280;6903;49.480;11.102;2023-04-19T02:53:12;98432.47;;;5.13;100.00
13661;BME280;6903;49.480;11.102;2023-04-19T02:55:37;98431.91;;;5.06;100.00
13661;BME280;6903;49.480;11.102;2023-04-19T02:58:03;98434.94;;;4.99;100.00
13661;BME280;6903;49.480;11.102;2023-04-19T03:00:28;98425.75;;;4.90;100.00
13661;BME280;6903;49.480;11.102;2023-04-19T03:02:55;98426.16;;;4.83;100.00
13661;BME280;6903;49.480;11.102;2023-04-19T03:05:21;98423.69;;;4.80;100.00
13661;BME280;6903;49.480;11.102;2023-04-19T03:07:46;98416.91;;;4.76;100.00
13661;BME280;6903;49.480;11.102;2023-04-19T03:10:12;98421.50;;;4.71;100.00
13661;BME280;6903;49.480;11.102;2023-04-19T03:12:37;98422.53;;;4.68;100.00
13661;BME280;6903;49.480;11.102;2023-04-19T03:15:02;98418.28;;;4.66;100.00
13661;BME280;6903;49.480;11.102;2023-04-19T03:17:28;98416.59;;;4.65;100.00
13661;BME280;6903;49.480;11.102;2023-04-19T03:19:54;98413.28;;;4.61;100.00
13661;BME280;6903;49.480;11.102;2023-04-19T03:22:20;98414.44;;;4.56;100.00
13661;BME280;6903;49.480;11.102;2023-04-19T03:24:46;98413.66;;;4.54;100.00
13661;BME280;6903;49.480;11.102;2023-04-19T03:27:11;98402.28;;;4.55;100.00
13661;BME280;6903;49.480;11.102;2023-04-19T03:29:36;98408.50;;;4.52;100.00
13661;BME280;6903;49.480;11.102;2023-04-19T03:32:01;98402.34;;;4.53;100.00
13661;BME280;6903;49.480;11.102;2023-04-19T03:34:27;98396.44;;;4.50;100.00
13661;BME280;6903;49.480;11.102;2023-04-19T03:36:52;98398.22;;;4.49;100.00
13661;BME280;6903;49.480;11.102;2023-04-19T03:39:17;98399.81;;;4.52;100.00
13661;BME280;6903;49.480;11.102;2023-04-19T03:41:43;98404.00;;;4.56;100.00
13661;BME280;6903;49.480;11.102;2023-04-19T03:44:08;98387.09;;;4.63;100.00
13661;BME280;6903;49.480;11.102;2023-04-19T03:46:33;98387.72;;;4.68;100.00
13661;BME280;6903;49.480;11.102;2023-04-19T03:48:59;98387.63;;;4.69;100.00
13661;BME280;6903;49.480;11.102;2023-04-19T03:51:24;98382.31;;;4.71;100.00
13661;BME280;6903;49.480;11.102;2023-04-19T03:53:49;98387.41;;;4.74;100.00
13661;BME280;6903;49.480;11.102;2023-04-19T03:56:14;98397.72;;;4.77;100.00
13661;BME280;6903;49.480;11.102;2023-04-19T03:58:40;98383.88;;;4.75;100.00
13661;BME280;6903;49.480;11.102;2023-04-19T04:01:05;98381.97;;;4.78;100.00
13661;BME280;6903;49.480;11.102;2023-04-19T04:03:32;98389.50;;;4.84;100.00
13661;BME280;6903;49.480;11.102;2023-04-19T04:05:57;98391.88;;;4.89;100.00
13661;BME280;6903;49.480;11.102;2023-04-19T04:08:23;98387.03;;;4.98;100.00
13661;BME280;6903;49.480;11.102;2023-04-19T04:10:48;98384.97;;;5.05;100.00
13661;BME280;6903;49.480;11.102;2023-04-19T04:13:13;98392.34;;;5.14;100.00
13661;BME280;6903;49.480;11.102;2023-04-19T04:15:39;98387.50;;;5.23;100.00
13661;BME280;6903;49.480;11.102;2023-04-19T04:18:04;98382.63;;;5.33;100.00
13661;BME280;6903;49.480;11.102;2023-04-19T04:20:29;98382.47;;;5.36;100.00
13661;BME280;6903;49.480;11.102;2023-04-19T04:22:55;98384.84;;;5.40;100.00
13661;BME280;6903;49.480;11.102;2023-04-19T04:25:21;98389.91;;;5.43;100.00
13661;BME280;6903;49.480;11.102;2023-04-19T04:27:46;98386.22;;;5.47;100.00
13661;BME280;6903;49.480;11.102;2023-04-19T04:30:14;98384.28;;;5.51;100.00
13661;BME280;6903;49.480;11.102;2023-04-19T04:32:39;98388.44;;;5.55;100.00
13661;BME280;6903;49.480;11.102;2023-04-19T04:35:06;98385.47;;;5.61;100.00
13661;BME280;6903;49.480;11.102;2023-04-19T04:37:32;98385.31;;;5.64;100.00
13661;BME280;6903;49.480;11.102;2023-04-19T04:40:04;98385.94;;;5.69;100.00
13661;BME280;6903;49.480;11.102;2023-04-19T04:42:29;98380.44;;;5.73;100.00
13661;BME280;6903;49.480;11.102;2023-04-19T04:44:55;98378.50;;;5.77;100.00
13661;BME280;6903;49.480;11.102;2023-04-19T04:47:22;98385.28;;;5.81;100.00
13661;BME280;6903;49.480;11.102;2023-04-19T04:49:47;98385.84;;;5.88;100.00
13661;BME280;6903;49.480;11.102;2023-04-19T04:52:12;98382.03;;;5.93;100.00
13661;BME280;6903;49.480;11.102;2023-04-19T04:54:38;98377.41;;;5.98;100.00
13661;BME280;6903;49.480;11.102;2023-04-19T04:57:03;98381.47;;;6.04;100.00
13661;BME280;6903;49.480;11.102;2023-04-19T04:59:28;98378.59;;;6.08;100.00
13661;BME280;6903;49.480;11.102;2023-04-19T05:01:54;98375.88;;;6.10;100.00
13661;BME280;6903;49.480;11.102;2023-04-19T05:04:19;98386.09;;;6.14;100.00
13661;BME280;6903;49.480;11.102;2023-04-19T05:06:44;98370.97;;;6.19;100.00
13661;BME280;6903;49.480;11.102;2023-04-19T05:09:10;98374.47;;;6.20;100.00
13661;BME280;6903;49.480;11.102;2023-04-19T05:11:35;98370.63;;;6.25;100.00
13661;BME280;6903;49.480;11.102;2023-04-19T05:14:01;98371.31;;;6.29;100.00
13661;BME280;6903;49.480;11.102;2023-04-19T05:16:27;98373.34;;;6.39;100.00
13661;BME280;6903;49.480;11.102;2023-04-19T05:18:52;98374.50;;;6.49;100.00
13661;BME280;6903;49.480;11.102;2023-04-19T05:21:17;98375.69;;;6.59;100.00
13661;BME280;6903;49.480;11.102;2023-04-19T05:23:43;98378.88;;;6.64;100.00
13661;BME280;6903;49.480;11.102;2023-04-19T05:26:08;98381.06;;;6.72;100.00
13661;BME280;6903;49.480;11.102;2023-04-19T05:28:39;98373.50;;;6.81;100.00
13661;BME280;6903;49.480;11.102;2023-04-19T05:31:04;98377.66;;;6.85;100.00
13661;BME280;6903;49.480;11.102;2023-04-19T05:33:29;98370.94;;;6.95;100.00
13661;BME280;6903;49.480;11.102;2023-04-19T05:35:55;98362.72;;;7.01;100.00
13661;BME280;6903;49.480;11.102;2023-04-19T05:38:20;98363.22;;;7.08;100.00
13661;BME280;6903;49.480;11.102;2023-04-19T05:40:45;98362.66;;;7.17;100.00
13661;BME280;6903;49.480;11.102;2023-04-19T05:43:11;98365.56;;;7.27;100.00
13661;BME280;6903;49.480;11.102;2023-04-19T05:45:36;98365.03;;;7.36;100.00
13661;BME280;6903;49.480;11.102;2023-04-19T05:48:01;98358.41;;;7.44;100.00
13661;BME280;6903;49.480;11.102;2023-04-19T05:50:27;98361.47;;;7.51;100.00
13661;BME280;6903;49.480;11.102;2023-04-19T05:52:52;98364.41;;;7.60;100.00
13661;BME280;6903;49.480;11.102;2023-04-19T05:55:17;98363.06;;;7.67;100.00
13661;BME280;6903;49.480;11.102;2023-04-19T05:57:43;98363.53;;;7.74;100.00
13661;BME280;6903;49.480;11.102;2023-04-19T06:00:08;98355.28;;;7.80;100.00
13661;BME280;6903;49.480;11.102;2023-04-19T06:02:34;98353.97;;;7.87;100.00
13661;BME280;6903;49.480;11.102;2023-04-19T06:05:00;98355.28;;;7.94;100.00
13661;BME280;6903;49.480;11.102;2023-04-19T06:07:30;98357.44;;;8.01;100.00
13661;BME280;6903;49.480;11.102;2023-04-19T06:09:56;98350.97;;;8.07;100.00
13661;BME280;6903;49.480;11.102;2023-04-19T06:12:21;98352.34;;;8.12;100.00
13661;BME280;6903;49.480;11.102;2023-04-19T06:14:46;98353.53;;;8.21;100.00
13661;BME280;6903;49.480;11.102;2023-04-19T06:17:12;98356.75;;;8.26;100.00
13661;BME280;6903;49.480;11.102;2023-04-19T06:19:38;98352.97;;;8.30;100.00
13661;BME280;6903;49.480;11.102;2023-04-19T06:22:03;98350.91;;;8.35;100.00
13661;BME280;6903;49.480;11.102;2023-04-19T06:24:29;98352.31;;;8.40;100.00
13661;BME280;6903;49.480;11.102;2023-04-19T06:26:54;98353.59;;;8.47;100.00
13661;BME280;6903;49.480;11.102;2023-04-19T06:29:19;98348.97;;;8.51;100.00
13661;BME280;6903;49.480;11.102;2023-04-19T06:31:46;98345.44;;;8.52;100.00
13661;BME280;6903;49.480;11.102;2023-04-19T06:34:11;98344.38;;;8.54;100.00
13661;BME280;6903;49.480;11.102;2023-04-19T06:36:36;98346.03;;;8.55;100.00
13661;BME280;6903;49.480;11.102;2023-04-19T06:39:02;98345.56;;;8.63;100.00
13661;BME280;6903;49.480;11.102;2023-04-19T06:41:28;98342.41;;;8.71;100.00
13661;BME280;6903;49.480;11.102;2023-04-19T06:43:53;98343.72;;;8.78;100.00
13661;BME280;6903;49.480;11.102;2023-04-19T06:46:18;98342.66;;;8.80;100.00
13661;BME280;6903;49.480;11.102;2023-04-19T06:48:44;98336.25;;;8.84;100.00
13661;BME280;6903;49.480;11.102;2023-04-19T06:51:09;98326.25;;;8.89;100.00
13661;BME280;6903;49.480;11.102;2023-04-19T06:53:34;98331.84;;;8.97;100.00
13661;BME280;6903;49.480;11.102;2023-04-19T06:56:01;98333.78;;;9.08;100.00
13661;BME280;6903;49.480;11.102;2023-04-19T06:58:28;98322.50;;;9.18;100.00
13661;BME280;6903;49.480;11.102;2023-04-19T07:00:54;98326.31;;;9.27;100.00
13661;BME280;6903;49.480;11.102;2023-04-19T07:03:20;98319.59;;;9.35;100.00
13661;BME280;6903;49.480;11.102;2023-04-19T07:05:45;98329.69;;;9.41;100.00
13661;BME280;6903;49.480;11.102;2023-04-19T07:08:11;98318.72;;;9.47;100.00
13661;BME280;6903;49.480;11.102;2023-04-19T07:10:36;98331.78;;;9.49;100.00
13661;BME280;6903;49.480;11.102;2023-04-19T07:13:01;98317.34;;;9.54;100.00
13661;BME280;6903;49.480;11.102;2023-04-19T07:15:27;98308.91;;;9.62;100.00
13661;BME280;6903;49.480;11.102;2023-04-19T07:17:52;98302.19;;;9.70;100.00
13661;BME280;6903;49.480;11.102;2023-04-19T07:20:17;98301.22;;;9.84;100.00
13661;BME280;6903;49.480;11.102;2023-04-19T07:22:43;98295.06;;;9.96;100.00
13661;BME280;6903;49.480;11.102;2023-04-19T07:25:08;98288.19;;;10.06;100.00
13661;BME280;6903;49.480;11.102;2023-04-19T07:27:34;98289.25;;;10.16;100.00
13661;BME280;6903;49.480;11.102;2023-04-19T07:29:59;98293.94;;;10.24;100.00
13661;BME280;6903;49.480;11.102;2023-04-19T07:32:24;98291.59;;;10.32;100.00
13661;BME280;6903;49.480;11.102;2023-04-19T07:34:50;98293.78;;;10.38;100.00
13661;BME280;6903;49.480;11.102;2023-04-19T07:37:16;98288.16;;;10.42;100.00
13661;BME280;6903;49.480;11.102;2023-04-19T07:39:41;98284.00;;;10.51;100.00
13661;BME280;6903;49.480;11.102;2023-04-19T07:42:06;98281.53;;;10.60;100.00
13661;BME280;6903;49.480;11.102;2023-04-19T07:44:32;98284.09;;;10.73;100.00
13661;BME280;6903;49.480;11.102;2023-04-19T07:46:57;98283.66;;;10.79;100.00
13661;BME280;6903;49.480;11.102;2023-04-19T07:49:22;98288.69;;;10.82;100.00
13661;BME280;6903;49.480;11.102;2023-04-19T07:51:48;98283.66;;;10.79;100.00
13661;BME280;6903;49.480;11.102;2023-04-19T07:54:13;98284.72;;;10.76;100.00
13661;BME280;6903;49.480;11.102;2023-04-19T07:56:40;98275.13;;;10.75;100.00
13661;BME280;6903;49.480;11.102;2023-04-19T07:59:06;98282.78;;;10.67;100.00
13661;BME280;6903;49.480;11.102;2023-04-19T08:01:31;98271.38;;;10.67;100.00
13661;BME280;6903;49.480;11.102;2023-04-19T08:03:56;98278.34;;;10.68;100.00
13661;BME280;6903;49.480;11.102;2023-04-19T08:06:21;98275.81;;;10.66;100.00
13661;BME280;6903;49.480;11.102;2023-04-19T08:08:47;98276.88;;;10.64;100.00
13661;BME280;6903;49.480;11.102;2023-04-19T08:11:13;98274.25;;;10.64;100.00
13661;BME280;6903;49.480;11.102;2023-04-19T08:13:38;98277.34;;;10.58;100.00
13661;BME280;6903;49.480;11.102;2023-04-19T08:16:04;98276.84;;;10.53;100.00
13661;BME280;6903;49.480;11.102;2023-04-19T08:18:30;98275.75;;;10.55;100.00
13661;BME280;6903;49.480;11.102;2023-04-19T08:20:55;98272.63;;;10.50;100.00
13661;BME280;6903;49.480;11.102;2023-04-19T08:23:21;98279.78;;;10.37;100.00
13661;BME280;6903;49.480;11.102;2023-04-19T08:25:46;98275.16;;;10.28;100.00
13661;BME280;6903;49.480;11.102;2023-04-19T08:28:11;98271.19;;;10.23;100.00
13661;BME280;6903;49.480;11.102;2023-04-19T08:30:37;98273.03;;;10.10;100.00
13661;BME280;6903;49.480;11.102;2023-04-19T08:33:02;98282.41;;;10.01;100.00
13661;BME280;6903;49.480;11.102;2023-04-19T08:35:27;98273.53;;;10.02;100.00
13661;BME280;6903;49.480;11.102;2023-04-19T08:37:53;98279.75;;;10.14;100.00
13661;BME280;6903;49.480;11.102;2023-04-19T08:40:18;98279.97;;;10.34;100.00
13661;BME280;6903;49.480;11.102;2023-04-19T08:42:44;98282.63;;;10.58;100.00
13661;BME280;6903;49.480;11.102;2023-04-19T08:45:09;98284.81;;;10.75;100.00
13661;BME280;6903;49.480;11.102;2023-04-19T08:47:38;98274.81;;;10.56;100.00
13661;BME280;6903;49.480;11.102;2023-04-19T08:50:04;98288.63;;;10.36;100.00
13661;BME280;6903;49.480;11.102;2023-04-19T08:52:35;98277.84;;;10.16;100.00
13661;BME280;6903;49.480;11.102;2023-04-19T08:55:05;98279.53;;;10.04;100.00
13661;BME280;6903;49.480;11.102;2023-04-19T08:57:31;98285.47;;;9.95;100.00
13661;BME280;6903;49.480;11.102;2023-04-19T08:59:57;98279.66;;;10.02;100.00
13661;BME280;6903;49.480;11.102;2023-04-19T09:02:23;98274.94;;;10.08;100.00
13661;BME280;6903;49.480;11.102;2023-04-19T09:04:48;98284.19;;;10.13;100.00
13661;BME280;6903;49.480;11.102;2023-04-19T09:07:26;98276.00;;;10.29;100.00
13661;BME280;6903;49.480;11.102;2023-04-19T09:10:12;98273.03;;;10.33;100.00
13661;BME280;6903;49.480;11.102;2023-04-19T09:12:39;98277.75;;;10.17;100.00
13661;BME280;6903;49.480;11.102;2023-04-19T09:15:06;98280.16;;;10.20;100.00
13661;BME280;6903;49.480;11.102;2023-04-19T09:17:38;98270.19;;;10.13;100.00
13661;BME280;6903;49.480;11.102;2023-04-19T09:20:05;98279.00;;;10.24;100.00
13661;BME280;6903;49.480;11.102;2023-04-19T09:22:31;98268.75;;;10.20;100.00
13661;BME280;6903;49.480;11.102;2023-04-19T09:24:58;98270.13;;;10.25;100.00
13661;BME280;6903;49.480;11.102;2023-04-19T09:27:29;98265.53;;;10.16;100.00
13661;BME280;6903;49.480;11.102;2023-04-19T09:29:59;98265.31;;;10.19;100.00
13661;BME280;6903;49.480;11.102;2023-04-19T09:32:26;98262.78;;;10.18;100.00
13661;BME280;6903;49.480;11.102;2023-04-19T09:37:17;98260.78;;;10.09;100.00
13661;BME280;6903;49.480;11.102;2023-04-19T09:39:42;98257.22;;;10.10;100.00
13661;BME280;6903;49.480;11.102;2023-04-19T09:42:07;98258.03;;;10.10;100.00
13661;BME280;6903;49.480;11.102;2023-04-19T09:44:33;98258.44;;;10.17;100.00
13661;BME280;6903;49.480;11.102;2023-04-19T09:46:59;98252.41;;;10.27;100.00
13661;BME280;6903;49.480;11.102;2023-04-19T09:49:24;98251.47;;;10.39;100.00
13661;BME280;6903;49.480;11.102;2023-04-19T09:51:52;98254.97;;;10.40;100.00
13661;BME280;6903;49.480;11.102;2023-04-19T09:54:24;98255.38;;;10.23;100.00
13661;BME280;6903;49.480;11.102;2023-04-19T09:56:50;98254.94;;;10.29;100.00
13661;BME280;6903;49.480;11.102;2023-04-19T09:59:17;98260.66;;;10.23;100.00
13661;BME280;6903;49.480;11.102;2023-04-19T10:04:10;98249.16;;;10.24;100.00
13661;BME280;6903;49.480;11.102;2023-04-19T10:06:38;98250.03;;;10.35;100.00
13661;BME280;6903;49.480;11.102;2023-04-19T10:09:04;98232.47;;;10.47;100.00
13661;BME280;6903;49.480;11.102;2023-04-19T10:11:33;98243.19;;;10.56;100.00
13661;BME280;6903;49.480;11.102;2023-04-19T10:14:09;98238.97;;;10.54;100.00
13661;BME280;6903;49.480;11.102;2023-04-19T10:16:36;98237.41;;;10.51;100.00
13661;BME280;6903;49.480;11.102;2023-04-19T10:19:14;98237.19;;;10.54;100.00
13661;BME280;6903;49.480;11.102;2023-04-19T10:21:41;98248.38;;;10.69;100.00
13661;BME280;6903;49.480;11.102;2023-04-19T10:24:07;98238.84;;;10.55;100.00
13661;BME280;6903;49.480;11.102;2023-04-19T10:27:11;98234.06;;;10.60;100.00
13661;BME280;6903;49.480;11.102;2023-04-19T10:30:02;98226.53;;;10.67;100.00
13661;BME280;6903;49.480;11.102;2023-04-19T10:32:37;98217.38;;;10.49;100.00
13661;BME280;6903;49.480;11.102;2023-04-19T10:35:26;98213.28;;;10.45;100.00
13661;BME280;6903;49.480;11.102;2023-04-19T10:43:21;98203.13;;;11.19;100.00
13661;BME280;6903;49.480;11.102;2023-04-19T10:45:46;98200.13;;;11.34;100.00
13661;BME280;6903;49.480;11.102;2023-04-19T10:53:55;98202.50;;;11.48;100.00
13661;BME280;6903;49.480;11.102;2023-04-19T11:03:57;98174.19;;;12.15;100.00
13661;BME280;6903;49.480;11.102;2023-04-19T11:06:22;98172.41;;;12.36;100.00
13661;BME280;6903;49.480;11.102;2023-04-19T11:08:51;98170.88;;;12.23;100.00
13661;BME280;6903;49.480;11.102;2023-04-19T11:11:17;98164.34;;;12.38;100.00
13661;BME280;6903;49.480;11.102;2023-04-19T11:13:43;98157.19;;;12.70;100.00
13661;BME280;6903;49.480;11.102;2023-04-19T11:16:09;98149.25;;;13.00;100.00
13661;BME280;6903;49.480;11.102;2023-04-19T11:18:34;98152.69;;;13.12;95.77
13661;BME280;6903;49.480;11.102;2023-04-19T11:21:00;98139.66;;;12.99;86.13
13661;BME280;6903;49.480;11.102;2023-04-19T11:23:25;98137.09;;;13.09;85.65
13661;BME280;6903;49.480;11.102;2023-04-19T11:25:51;98143.94;;;13.51;84.81
13661;BME280;6903;49.480;11.102;2023-04-19T11:28:17;98127.44;;;13.38;77.25
13661;BME280;6903;49.480;11.102;2023-04-19T11:30:43;98130.75;;;13.21;74.67
13661;BME280;6903;49.480;11.102;2023-04-19T11:33:11;98134.50;;;13.28;77.08
13661;BME280;6903;49.480;11.102;2023-04-19T11:35:36;98146.78;;;12.78;76.26
13661;BME280;6903;49.480;11.102;2023-04-19T11:38:02;98137.22;;;12.87;78.43
13661;BME280;6903;49.480;11.102;2023-04-19T11:40:29;98123.94;;;12.77;77.40
13661;BME280;6903;49.480;11.102;2023-04-19T11:43:05;98118.16;;;12.62;78.98
13661;BME280;6903;49.480;11.102;2023-04-19T11:45:34;98132.91;;;12.65;80.00
13661;BME280;6903;49.480;11.102;2023-04-19T11:48:01;98117.78;;;12.97;79.27
13661;BME280;6903;49.480;11.102;2023-04-19T11:50:31;98112.59;;;13.26;75.09
13661;BME280;6903;49.480;11.102;2023-04-19T11:52:57;98093.88;;;13.48;73.47
13661;BME280;6903;49.480;11.102;2023-04-19T11:55:23;98099.19;;;13.67;72.18
13661;BME280;6903;49.480;11.102;2023-04-19T11:57:48;98104.09;;;13.71;72.46
13661;BME280;6903;49.480;11.102;2023-04-19T12:00:14;98097.22;;;13.50;73.45
13661;BME280;6903;49.480;11.102;2023-04-19T12:02:44;98104.78;;;13.15;68.77
13661;BME280;6903;49.480;11.102;2023-04-19T12:05:14;98108.34;;;12.74;68.52
13661;BME280;6903;49.480;11.102;2023-04-19T12:10:28;98091.66;;;13.13;63.95
13661;BME280;6903;49.480;11.102;2023-04-19T12:12:53;98100.63;;;12.92;63.05
13661;BME280;6903;49.480;11.102;2023-04-19T12:15:18;98084.16;;;13.18;64.88
13661;BME280;6903;49.480;11.102;2023-04-19T12:20:35;98079.56;;;13.88;60.45
13661;BME280;6903;49.480;11.102;2023-04-19T12:23:01;98082.88;;;13.81;59.12
13661;BME280;6903;49.480;11.102;2023-04-19T12:25:30;98079.97;;;13.84;57.30
13661;BME280;6903;49.480;11.102;2023-04-19T12:27:58;98069.91;;;13.87;55.31
13661;BME280;6903;49.480;11.102;2023-04-19T12:30:23;98072.41;;;14.08;56.52
13661;BME280;6903;49.480;11.102;2023-04-19T12:32:48;98082.34;;;13.96;52.08
13661;BME280;6903;49.480;11.102;2023-04-19T12:35:15;98072.84;;;13.75;51.26
13661;BME280;6903;49.480;11.102;2023-04-19T12:37:41;98077.31;;;13.74;51.32
13661;BME280;6903;49.480;11.102;2023-04-19T12:40:07;98084.31;;;13.85;50.48
13661;BME280;6903;49.480;11.102;2023-04-19T12:42:33;98069.09;;;14.15;49.71
13661;BME280;6903;49.480;11.102;2023-04-19T12:44:58;98062.78;;;14.36;49.87
13661;BME280;6903;49.480;11.102;2023-04-19T12:47:23;98071.19;;;14.12;47.63
13661;BME280;6903;49.480;11.102;2023-04-19T12:49:48;98068.38;;;13.66;47.99
13661;BME280;6903;49.480;11.102;2023-04-19T12:52:14;98087.22;;;13.14;46.66
13661;BME280;6903;49.480;11.102;2023-04-19T12:54:39;98076.06;;;13.10;46.75
13661;BME280;6903;49.480;11.102;2023-04-19T12:57:05;98061.38;;;13.36;43.92
13661;BME280;6903;49.480;11.102;2023-04-19T12:59:30;98074.19;;;13.41;42.24
13661;BME280;6903;49.480;11.102;2023-04-19T13:01:56;98072.06;;;13.16;42.13
13661;BME280;6903;49.480;11.102;2023-04-19T13:04:21;98074.59;;;12.97;41.86
13661;BME280;6903;49.480;11.102;2023-04-19T13:06:47;98076.19;;;13.09;41.17
13661;BME280;6903;49.480;11.102;2023-04-19T13:09:12;98066.97;;;13.43;41.25
13661;BME280;6903;49.480;11.102;2023-04-19T13:11:37;98068.63;;;13.53;41.19
13661;BME280;6903;49.480;11.102;2023-04-19T13:14:02;98083.72;;;13.81;40.16
13661;BME280;6903;49.480;11.102;2023-04-19T13:16:28;98061.69;;;13.81;38.83
13661;BME280;6903;49.480;11.102;2023-04-19T13:18:53;98063.66;;;13.88;38.94
13661;BME280;6903;49.480;11.102;2023-04-19T13:21:19;98070.75;;;13.97;39.10